createdAt,value
2022-09-05T00:02:24.699Z,51.00
2022-09-05T00:05:10.613Z,51.00
2022-09-05T00:07:58.108Z,51.10
2022-09-05T00:10:51.943Z,51.10
2022-09-05T00:13:32.616Z,51.30
2022-09-05T00:16:10.807Z,51.30
2022-09-05T00:24:24.708Z,51.40
2022-09-05T00:24:26.947Z,51.40
2022-09-05T00:25:06.815Z,51.40
2022-09-05T00:27:40.128Z,51.50
2022-09-05T00:31:51.041Z,51.60
2022-09-05T00:33:16.926Z,51.60
2022-09-05T00:35:53.905Z,51.70
2022-09-05T00:38:23.538Z,52.20
2022-09-05T00:40:57.393Z,51.80
2022-09-05T00:43:27.917Z,51.80
2022-09-05T00:46:10.653Z,51.90
2022-09-05T00:48:46.918Z,52.00
2022-09-05T00:51:17.135Z,52.00
2022-09-05T00:54:02.729Z,52.10
2022-09-05T00:56:47.113Z,52.20
2022-09-05T00:59:32.951Z,52.30
2022-09-05T01:02:19.078Z,52.30
2022-09-05T01:04:53.879Z,52.40
2022-09-05T01:07:33.568Z,52.50
2022-09-05T01:10:24.144Z,52.60
2022-09-05T01:13:16.859Z,52.70
2022-09-05T01:15:57.777Z,52.80
2022-09-05T01:18:34.270Z,52.90
2022-09-05T01:21:04.466Z,52.90
2022-09-05T01:23:50.372Z,53.00
2022-09-05T01:26:46.783Z,53.10
2022-09-05T01:29:19.387Z,53.20
2022-09-05T01:31:59.112Z,53.20
2022-09-05T01:34:44.985Z,53.30
2022-09-05T01:37:25.134Z,53.30
2022-09-05T01:40:15.301Z,53.40
2022-09-05T01:43:02.690Z,53.50
2022-09-05T01:45:39.409Z,53.60
2022-09-05T01:48:19.313Z,53.60
2022-09-05T01:50:51.733Z,53.70
2022-09-05T01:53:31.940Z,53.80
2022-09-05T01:56:11.507Z,53.90
2022-09-05T01:58:58.234Z,54.00
2022-09-05T02:01:51.308Z,54.00
2022-09-05T02:04:34.039Z,54.10
2022-09-05T02:07:31.277Z,54.10
2022-09-05T02:10:12.442Z,54.30
2022-09-05T02:13:03.149Z,54.40
2022-09-05T02:15:59.312Z,54.50
2022-09-05T02:18:47.618Z,54.50
2022-09-05T02:21:25.974Z,54.70
2022-09-05T02:24:02.953Z,54.70
2022-09-05T02:26:34.686Z,54.70
2022-09-05T02:29:28.468Z,54.80
2022-09-05T02:32:19.603Z,54.90
2022-09-05T02:34:46.991Z,55.00
2022-09-05T02:38:18.345Z,54.90
2022-09-05T02:45:07.592Z,55.10
2022-09-05T02:45:10.682Z,55.00
2022-09-05T02:46:04.414Z,55.10
2022-09-05T02:48:37.820Z,55.20
2022-09-05T02:57:26.182Z,55.20
2022-09-05T02:57:43.272Z,55.40
2022-09-05T02:58:05.498Z,55.30
2022-09-05T02:59:59.989Z,55.50
2022-09-05T03:02:27.407Z,55.50
2022-09-05T03:05:20.957Z,55.50
2022-09-05T03:08:06.162Z,55.60
2022-09-05T03:10:53.545Z,55.60
2022-09-05T03:13:46.283Z,55.70
2022-09-05T03:16:21.941Z,55.70
2022-09-05T03:19:08.272Z,55.80
2022-09-05T03:21:48.233Z,55.90
2022-09-05T03:24:21.715Z,55.90
2022-09-05T03:27:07.638Z,56.00
2022-09-05T03:29:58.411Z,56.00
2022-09-05T03:32:32.545Z,56.10
2022-09-05T03:35:08.848Z,56.20
2022-09-05T03:37:46.922Z,56.20
2022-09-05T03:40:23.290Z,56.30
2022-09-05T03:42:56.124Z,56.30
2022-09-05T03:45:36.436Z,56.40
2022-09-05T03:48:27.669Z,56.50
2022-09-05T03:57:04.198Z,56.50
2022-09-05T03:57:15.450Z,56.60
2022-09-05T03:57:32.236Z,56.70
2022-09-05T04:00:11.635Z,56.60
2022-09-05T04:08:14.319Z,56.70
2022-09-05T04:08:15.655Z,56.70
2022-09-05T04:08:52.169Z,56.80
2022-09-05T04:11:32.367Z,56.80
2022-09-05T04:14:10.019Z,56.90
2022-09-05T04:16:56.175Z,56.90
2022-09-05T04:19:32.761Z,57.00
2022-09-05T04:22:00.131Z,57.00
2022-09-05T04:24:34.558Z,57.00
2022-09-05T04:27:26.395Z,57.10
2022-09-05T04:29:59.978Z,57.10
2022-09-05T04:32:54.672Z,57.20
2022-09-05T04:35:47.810Z,57.30
2022-09-05T04:38:17.518Z,57.30
2022-09-05T04:41:03.689Z,57.40
2022-09-05T04:43:36.302Z,57.50
2022-09-05T04:46:06.532Z,58.20
2022-09-05T04:48:43.644Z,57.50
2022-09-05T04:51:26.644Z,57.60
2022-09-05T04:53:54.003Z,57.60
2022-09-05T04:56:23.527Z,57.60
2022-09-05T05:00:51.359Z,57.70
2022-09-05T05:06:04.443Z,57.70
2022-09-05T05:06:18.515Z,57.70
2022-09-05T05:07:26.698Z,57.80
2022-09-05T05:11:06.134Z,58.00
2022-09-05T05:17:54.905Z,58.00
2022-09-05T05:18:14.681Z,58.00
2022-09-05T05:19:03.074Z,58.10
2022-09-05T05:21:33.468Z,58.20
2022-09-05T05:24:07.193Z,58.30
2022-09-05T05:26:42.665Z,58.40
2022-09-05T05:29:20.666Z,58.40
2022-09-05T05:31:59.552Z,58.60
2022-09-05T05:34:32.501Z,58.70
2022-09-05T05:37:18.830Z,58.80
2022-09-05T05:39:49.392Z,58.80
2022-09-05T05:42:21.601Z,58.90
2022-09-05T05:44:59.188Z,59.00
2022-09-05T05:47:32.631Z,59.10
2022-09-05T05:50:18.884Z,59.10
2022-09-05T05:53:04.908Z,59.20
2022-09-05T05:55:53.499Z,59.40
2022-09-05T05:58:39.608Z,59.50
2022-09-05T06:01:37.259Z,59.60
2022-09-05T06:04:17.866Z,59.80
2022-09-05T06:06:45.223Z,59.80
2022-09-05T06:14:13.677Z,60.00
2022-09-05T06:14:58.262Z,60.00
2022-09-05T06:15:43.193Z,60.20
2022-09-05T06:18:29.070Z,60.30
2022-09-05T06:22:08.552Z,60.40
2022-09-05T06:24:05.042Z,60.50
2022-09-05T06:26:41.273Z,60.60
2022-09-05T06:29:17.492Z,60.60
2022-09-05T06:32:03.366Z,60.70
2022-09-05T06:34:49.305Z,60.70
2022-09-05T06:37:36.816Z,60.80
2022-09-05T06:40:19.106Z,60.80
2022-09-05T06:42:58.740Z,60.90
2022-09-05T06:45:32.870Z,60.90
2022-09-05T06:48:23.877Z,60.90
2022-09-05T06:51:26.285Z,61.00
2022-09-05T06:53:53.631Z,61.00
2022-09-05T06:56:39.997Z,61.10
2022-09-05T06:59:09.738Z,61.20
2022-09-05T07:02:00.326Z,61.20
2022-09-05T07:05:24.765Z,61.20
2022-09-05T07:07:25.095Z,61.30
2022-09-05T07:09:55.416Z,61.30
2022-09-05T07:12:30.132Z,61.20
2022-09-05T07:14:58.040Z,61.20
2022-09-05T07:18:09.917Z,61.20
2022-09-05T07:21:15.642Z,61.10
2022-09-05T07:24:06.859Z,61.10
2022-09-05T07:26:49.655Z,61.10
2022-09-05T07:29:14.937Z,61.00
2022-09-05T07:31:42.604Z,61.00
2022-09-05T07:34:21.263Z,61.00
2022-09-05T07:37:14.220Z,60.90
2022-09-05T07:39:43.382Z,60.90
2022-09-05T07:42:15.859Z,60.90
2022-09-05T07:44:49.495Z,60.90
2022-09-05T07:47:22.932Z,60.80
2022-09-05T07:50:51.302Z,60.90
2022-09-05T07:56:52.334Z,60.90
2022-09-05T07:57:01.149Z,60.90
2022-09-05T07:58:20.551Z,60.90
2022-09-05T08:00:52.306Z,60.90
2022-09-05T08:03:23.608Z,60.90
2022-09-05T08:05:54.437Z,60.80
2022-09-05T08:08:27.728Z,60.80
2022-09-05T08:11:25.628Z,60.80
2022-09-05T08:13:50.486Z,60.80
2022-09-05T08:16:20.491Z,60.70
2022-09-05T08:18:51.116Z,60.70
2022-09-05T08:21:27.215Z,60.70
2022-09-05T08:23:55.261Z,60.70
2022-09-05T08:26:44.062Z,60.60
2022-09-05T08:29:20.024Z,60.60
2022-09-05T08:31:51.718Z,60.60
2022-09-05T08:34:44.931Z,60.50
2022-09-05T08:37:17.834Z,60.50
2022-09-05T08:39:56.847Z,60.40
2022-09-05T08:43:29.532Z,60.30
2022-09-05T08:46:46.634Z,60.30
2022-09-05T08:48:46.698Z,60.40
2022-09-05T08:51:26.509Z,60.30
2022-09-05T08:54:16.244Z,60.20
2022-09-05T08:57:02.588Z,60.10
2022-09-05T08:59:35.797Z,60.00
2022-09-05T09:02:45.607Z,60.00
2022-09-05T09:05:14.591Z,60.00
2022-09-05T09:07:52.524Z,60.00
2022-09-05T09:10:29.062Z,59.90
2022-09-05T09:13:12.260Z,59.80
2022-09-05T09:15:39.580Z,59.70
2022-09-05T09:18:14.671Z,59.60
2022-09-05T09:20:49.889Z,59.60
2022-09-05T09:23:32.947Z,59.50
2022-09-05T09:26:06.085Z,59.40
2022-09-05T09:28:47.773Z,59.50
2022-09-05T09:31:31.877Z,59.40
2022-09-05T09:34:02.668Z,59.30
2022-09-05T09:36:48.764Z,59.20
2022-09-05T09:39:39.711Z,59.20
2022-09-05T09:42:07.343Z,59.00
2022-09-05T09:44:52.862Z,58.90
2022-09-05T09:47:49.279Z,58.90
2022-09-05T09:50:22.635Z,58.80
2022-09-05T09:53:13.344Z,58.70
2022-09-05T09:56:07.353Z,58.60
2022-09-05T09:58:37.660Z,58.60
2022-09-05T10:01:35.513Z,58.50
2022-09-05T10:09:38.363Z,58.60
2022-09-05T10:10:51.624Z,58.60
2022-09-05T10:11:00.719Z,58.50
2022-09-05T10:13:21.441Z,58.30
2022-09-05T10:15:54.058Z,58.20
2022-09-05T10:18:22.430Z,58.10
2022-09-05T10:21:16.151Z,58.10
2022-09-05T10:23:56.825Z,57.80
2022-09-05T10:26:42.586Z,57.80
2022-09-05T10:29:37.124Z,57.70
2022-09-05T10:35:10.063Z,57.40
2022-09-05T10:35:22.589Z,57.40
2022-09-05T10:37:57.349Z,57.40
2022-09-05T10:40:26.039Z,57.30
2022-09-05T10:42:59.754Z,57.20
2022-09-05T10:45:38.088Z,57.00
2022-09-05T10:48:23.571Z,57.00
2022-09-05T10:51:01.421Z,56.70
2022-09-05T10:53:39.549Z,56.60
2022-09-05T10:56:28.590Z,56.60
2022-09-05T11:01:45.376Z,56.40
2022-09-05T11:02:28.642Z,56.40
2022-09-05T11:04:46.677Z,56.30
2022-09-05T11:07:27.858Z,56.20
2022-09-05T11:10:12.386Z,56.20
2022-09-05T11:12:39.783Z,56.10
2022-09-05T11:15:11.428Z,56.10
2022-09-05T11:17:52.127Z,55.90
2022-09-05T11:20:34.973Z,55.70
2022-09-05T11:23:11.256Z,55.60
2022-09-05T11:25:41.265Z,55.30
2022-09-05T11:28:22.526Z,55.20
2022-09-05T11:30:53.577Z,55.20
2022-09-05T11:40:10.360Z,55.00
2022-09-05T11:40:10.678Z,54.90
2022-09-05T11:40:10.747Z,55.10
2022-09-05T11:42:19.122Z,54.70
2022-09-05T11:45:01.797Z,54.70
2022-09-05T11:47:47.778Z,54.50
2022-09-05T11:50:25.785Z,54.40
2022-09-05T11:53:04.983Z,54.50
2022-09-05T11:55:51.252Z,54.40
2022-09-05T11:58:43.874Z,54.40
2022-09-05T12:01:38.393Z,54.20
2022-09-05T12:04:16.022Z,54.10
2022-09-05T12:07:02.270Z,54.00
2022-09-05T12:09:41.914Z,53.70
2022-09-05T12:12:39.490Z,53.60
2022-09-05T12:15:27.400Z,53.60
2022-09-05T12:18:03.572Z,53.40
2022-09-05T12:20:48.833Z,53.20
2022-09-05T12:23:39.916Z,52.90
2022-09-05T12:27:40.396Z,52.80
2022-09-05T12:29:29.084Z,52.60
2022-09-05T12:33:32.814Z,52.60
2022-09-05T12:36:12.247Z,52.50
2022-09-05T12:40:55.325Z,52.50
2022-09-05T12:41:36.613Z,52.60
2022-09-05T12:44:38.598Z,52.50
2022-09-05T12:46:27.618Z,52.40
2022-09-05T12:49:00.380Z,52.40
2022-09-05T12:51:47.106Z,52.20
2022-09-05T12:54:33.069Z,52.10
2022-09-05T13:00:06.923Z,51.80
2022-09-05T13:03:11.485Z,51.40
2022-09-05T13:03:14.116Z,51.60
2022-09-05T13:05:49.700Z,51.30
2022-09-05T13:08:21.815Z,51.20
2022-09-05T13:13:49.881Z,51.20
2022-09-05T13:15:06.017Z,51.00
2022-09-05T13:16:35.747Z,50.80
2022-09-05T13:19:07.872Z,50.30
2022-09-05T13:21:38.122Z,50.50
2022-09-05T13:24:27.185Z,50.40
2022-09-05T13:26:56.732Z,50.20
2022-09-05T13:29:39.874Z,50.40
2022-09-05T13:37:55.341Z,50.30
2022-09-05T13:38:19.479Z,50.30
2022-09-05T13:38:47.852Z,50.20
2022-09-05T13:41:03.848Z,50.10
2022-09-05T13:43:36.757Z,49.90
2022-09-05T13:46:17.695Z,49.90
2022-09-05T13:52:13.439Z,50.00
2022-09-05T13:54:51.108Z,49.90
2022-09-05T13:57:36.549Z,49.90
2022-09-05T14:00:27.182Z,49.80
2022-09-05T14:03:30.750Z,49.80
2022-09-05T14:06:46.079Z,49.60
2022-09-05T14:12:15.955Z,49.60
2022-09-05T14:15:10.470Z,49.70
2022-09-05T14:17:57.821Z,49.70
2022-09-05T14:20:49.552Z,49.50
2022-09-05T14:23:18.988Z,49.30
2022-09-05T14:25:52.507Z,49.30
2022-09-05T14:28:39.135Z,49.10
2022-09-05T14:35:29.319Z,49.10
2022-09-05T14:38:01.062Z,49.00
2022-09-05T14:38:01.678Z,48.80
2022-09-05T14:40:29.249Z,48.80
2022-09-05T14:42:59.876Z,48.70
2022-09-05T14:45:40.193Z,48.70
2022-09-05T14:48:07.748Z,48.70
2022-09-05T14:50:36.420Z,48.30
2022-09-05T14:57:52.633Z,48.10
2022-09-05T15:02:42.423Z,48.10
2022-09-05T15:02:49.022Z,47.90
2022-09-05T15:04:55.465Z,47.60
2022-09-05T15:07:22.770Z,47.50
2022-09-05T15:12:21.027Z,47.30
2022-09-05T15:13:17.090Z,47.20
2022-09-05T15:15:56.165Z,47.10
2022-09-05T15:18:32.429Z,47.10
2022-09-05T15:21:18.170Z,47.00
2022-09-05T15:24:15.084Z,46.80
2022-09-05T15:26:53.849Z,46.60
2022-09-05T15:29:22.882Z,47.20
2022-09-05T15:31:53.281Z,46.60
2022-09-05T15:34:38.688Z,46.70
2022-09-05T15:37:22.338Z,46.60
2022-09-05T15:40:22.693Z,46.50
2022-09-05T15:42:55.023Z,46.60
2022-09-05T15:45:28.180Z,46.60
2022-09-05T15:48:03.953Z,46.60
2022-09-05T15:50:37.607Z,46.60
2022-09-05T15:53:05.002Z,46.60
2022-09-05T15:55:44.499Z,46.60
2022-09-05T15:58:12.280Z,46.60
2022-09-05T16:00:41.828Z,46.60
2022-09-05T16:03:55.258Z,46.40
2022-09-05T16:10:30.116Z,46.40
2022-09-05T16:10:37.156Z,46.50
2022-09-05T16:14:39.666Z,46.50
2022-09-05T16:23:26.778Z,46.40
2022-09-05T16:23:31.184Z,46.40
2022-09-05T16:26:06.479Z,46.50
2022-09-05T16:28:38.728Z,46.40
2022-09-05T16:31:13.644Z,46.40
2022-09-05T16:33:42.797Z,46.50
2022-09-05T16:36:16.470Z,46.50
2022-09-05T16:38:49.466Z,46.50
2022-09-05T16:41:24.225Z,46.60
2022-09-05T16:43:57.451Z,46.60
2022-09-05T16:46:30.109Z,46.80
2022-09-05T16:49:01.158Z,46.80
2022-09-05T16:51:36.274Z,46.90
2022-09-05T16:54:03.883Z,47.00
2022-09-05T16:56:57.443Z,47.10
2022-09-05T16:59:30.044Z,47.20
2022-09-05T17:02:07.427Z,47.30
2022-09-05T17:05:04.963Z,47.30
2022-09-05T17:07:33.079Z,47.40
2022-09-05T17:10:17.255Z,47.50
2022-09-05T17:12:44.732Z,47.50
2022-09-05T17:15:16.146Z,47.60
2022-09-05T17:18:20.487Z,47.70
2022-09-05T17:20:37.153Z,47.90
2022-09-05T17:29:20.141Z,48.00
2022-09-05T17:29:26.821Z,48.20
2022-09-05T17:29:30.725Z,48.10
2022-09-05T17:31:54.534Z,48.30
2022-09-05T17:34:43.142Z,48.40
2022-09-05T17:37:19.784Z,48.60
2022-09-05T17:40:05.856Z,48.60
2022-09-05T17:42:42.971Z,48.70
2022-09-05T17:45:27.037Z,48.80
2022-09-05T17:47:58.250Z,48.90
2022-09-05T17:50:33.201Z,49.00
2022-09-05T17:53:26.968Z,49.10
2022-09-05T17:55:55.337Z,49.30
2022-09-05T17:58:22.817Z,49.50
2022-09-05T18:00:56.178Z,49.60
2022-09-05T18:03:39.244Z,49.70
2022-09-05T18:06:28.196Z,49.80
2022-09-05T18:08:56.604Z,49.90
2022-09-05T18:11:26.259Z,50.00
2022-09-05T18:13:55.696Z,50.10
2022-09-05T18:17:35.510Z,50.20
2022-09-05T18:19:46.519Z,50.20
2022-09-05T18:22:31.022Z,50.40
2022-09-05T18:25:28.920Z,50.50
2022-09-05T18:28:15.868Z,50.60
2022-09-05T18:30:43.564Z,50.70
2022-09-05T18:33:56.122Z,50.80
2022-09-05T18:36:25.805Z,50.80
2022-09-05T18:39:13.392Z,51.00
2022-09-05T18:41:42.863Z,51.00
2022-09-05T18:44:20.110Z,51.10
2022-09-05T18:46:50.476Z,51.10
2022-09-05T18:50:24.102Z,51.20
2022-09-05T18:52:16.450Z,51.20
2022-09-05T18:56:09.172Z,51.20
2022-09-05T18:57:44.004Z,51.30
2022-09-05T19:00:14.589Z,51.40
2022-09-05T19:02:58.641Z,51.50
2022-09-05T19:05:45.619Z,51.50
2022-09-05T19:08:29.271Z,51.50
2022-09-05T19:11:00.833Z,51.60
2022-09-05T19:13:33.767Z,51.60
2022-09-05T19:16:42.554Z,51.60
2022-09-05T19:19:10.887Z,51.70
2022-09-05T19:21:46.671Z,51.80
2022-09-05T19:24:25.510Z,51.80
2022-09-05T19:29:10.471Z,51.80
2022-09-05T19:36:48.647Z,51.80
2022-09-05T19:36:54.919Z,51.80
2022-09-05T19:37:10.149Z,51.90
2022-09-05T19:38:21.722Z,51.80
2022-09-05T19:47:25.908Z,52.00
2022-09-05T19:47:35.039Z,52.10
2022-09-05T19:47:41.034Z,52.00
2022-09-05T19:49:12.173Z,52.00
2022-09-05T19:51:41.438Z,52.10
2022-09-05T19:54:22.461Z,52.20
2022-09-05T19:56:49.851Z,52.20
2022-09-05T19:59:20.254Z,52.20
2022-09-05T20:01:48.383Z,52.20
2022-09-05T20:04:19.083Z,52.30
2022-09-05T20:06:47.722Z,52.30
2022-09-05T20:09:16.789Z,52.30
2022-09-05T20:11:51.628Z,51.80
2022-09-05T20:14:21.836Z,52.40
2022-09-05T20:16:50.553Z,52.50
2022-09-05T20:19:36.250Z,52.40
2022-09-05T20:22:17.384Z,52.60
2022-09-05T20:24:54.702Z,52.60
2022-09-05T20:27:27.423Z,52.70
2022-09-05T20:30:06.611Z,52.70
2022-09-05T20:32:40.479Z,52.60
2022-09-05T20:38:09.060Z,52.70
2022-09-05T20:43:22.287Z,52.80
2022-09-05T20:43:32.089Z,52.90
2022-09-05T20:43:54.924Z,52.90
2022-09-05T20:51:03.975Z,52.90
2022-09-05T20:54:19.411Z,53.00
2022-09-05T20:54:28.818Z,53.00
2022-09-05T20:54:56.045Z,53.10
2022-09-05T20:57:28.886Z,53.10
2022-09-05T20:59:57.203Z,53.20
2022-09-05T21:02:32.963Z,53.20
2022-09-05T21:05:06.807Z,53.30
2022-09-05T21:07:59.525Z,53.20
2022-09-05T21:10:55.190Z,53.20
2022-09-05T21:13:25.457Z,53.30
2022-09-05T21:15:54.475Z,53.30
2022-09-05T21:18:33.069Z,53.20
2022-09-05T21:21:10.296Z,53.30
2022-09-05T21:24:02.265Z,53.30
2022-09-05T21:26:44.430Z,53.30
2022-09-05T21:29:11.829Z,53.30
2022-09-05T21:31:54.453Z,53.30
2022-09-05T21:34:26.189Z,53.40
2022-09-05T21:37:07.124Z,53.40
2022-09-05T21:39:37.698Z,53.40
2022-09-05T21:42:22.905Z,53.50
2022-09-05T21:47:40.637Z,53.50
2022-09-05T21:47:52.477Z,53.60
2022-09-05T21:50:31.539Z,53.50
2022-09-05T21:54:36.556Z,53.60
2022-09-05T21:59:19.597Z,53.60
2022-09-05T21:59:26.443Z,53.70
2022-09-05T22:01:51.391Z,53.60
2022-09-05T22:04:11.590Z,53.70
2022-09-05T22:06:38.926Z,53.70
2022-09-05T22:09:13.085Z,53.70
2022-09-05T22:11:41.647Z,53.60
2022-09-05T22:14:09.393Z,53.70
2022-09-05T22:16:45.160Z,53.70
2022-09-05T22:19:15.865Z,53.80
2022-09-05T22:21:43.216Z,53.80
2022-09-05T22:24:11.911Z,53.80
2022-09-05T22:26:52.106Z,53.80
2022-09-05T22:29:28.243Z,53.90
2022-09-05T22:31:55.768Z,53.90
2022-09-05T22:34:23.067Z,53.80
2022-09-05T22:36:51.179Z,53.80
2022-09-05T22:39:36.388Z,53.80
2022-09-05T22:42:10.035Z,53.80
2022-09-05T22:44:41.344Z,53.80
2022-09-05T22:47:09.566Z,53.80
2022-09-05T22:49:37.169Z,53.80
2022-09-05T22:52:05.383Z,53.80
2022-09-05T22:54:32.930Z,53.70
2022-09-05T22:57:00.337Z,53.70
2022-09-05T22:59:27.808Z,54.40
2022-09-05T23:01:55.214Z,53.80
2022-09-05T23:04:23.658Z,53.80
2022-09-05T23:06:51.054Z,53.70
2022-09-05T23:09:18.525Z,53.70
2022-09-05T23:11:45.822Z,53.70
2022-09-05T23:14:13.282Z,53.70
2022-09-05T23:16:40.554Z,53.70
2022-09-05T23:19:07.987Z,53.70
2022-09-05T23:21:35.414Z,53.60
2022-09-05T23:24:02.934Z,53.60
2022-09-05T23:26:30.317Z,53.60
2022-09-05T23:28:57.730Z,53.60
2022-09-05T23:31:25.200Z,53.60
2022-09-05T23:33:52.635Z,53.60
2022-09-05T23:36:20.024Z,53.60
2022-09-05T23:38:47.472Z,53.60
2022-09-05T23:41:15.481Z,53.60
2022-09-05T23:43:43.028Z,53.60
2022-09-05T23:46:10.708Z,53.60
2022-09-05T23:48:38.189Z,53.50
2022-09-05T23:51:09.713Z,53.50
2022-09-05T23:53:37.367Z,53.60
2022-09-05T23:56:05.827Z,53.60
2022-09-05T23:58:33.459Z,53.50
